sensor_id;sensor_type;location;lat;lon;timestamp;P1;durP1;ratioP1;P2;durP2;ratioP2
3767;SDS011;1899;49.966;7.106;2023-02-15T05:01:21;24.35;;;15.73;;
3767;SDS011;1899;49.966;7.106;2023-02-15T05:03:46;22.00;;;15.40;;
3767;SDS011;1899;49.966;7.106;2023-02-15T05:06:11;22.30;;;15.20;;
3767;SDS011;1899;49.966;7.106;2023-02-15T05:08:37;20.70;;;14.30;;
3767;SDS011;1899;49.966;7.106;2023-02-15T05:11:02;24.97;;;16.27;;
3767;SDS011;1899;49.966;7.106;2023-02-15T05:13:27;18.27;;;13.60;;
3767;SDS011;1899;49.966;7.106;2023-02-15T05:15:53;18.13;;;13.97;;
3767;SDS011;1899;49.966;7.106;2023-02-15T05:18:18;23.17;;;15.03;;
3767;SDS011;1899;49.966;7.106;2023-02-15T05:20:44;19.95;;;14.88;;
3767;SDS011;1899;49.966;7.106;2023-02-15T05:23:09;19.27;;;13.10;;
3767;SDS011;1899;49.966;7.106;2023-02-15T05:25:34;18.03;;;13.00;;
3767;SDS011;1899;49.966;7.106;2023-02-15T05:28:18;20.35;;;14.90;;
3767;SDS011;1899;49.966;7.106;2023-02-15T05:30:44;23.87;;;15.73;;
3767;SDS011;1899;49.966;7.106;2023-02-15T05:33:09;19.90;;;14.17;;
3767;SDS011;1899;49.966;7.106;2023-02-15T05:35:34;24.80;;;16.80;;
3767;SDS011;1899;49.966;7.106;2023-02-15T05:38:00;24.60;;;15.93;;
3767;SDS011;1899;49.966;7.106;2023-02-15T05:40:25;18.07;;;12.97;;
3767;SDS011;1899;49.966;7.106;2023-02-15T05:42:50;23.30;;;15.83;;
3767;SDS011;1899;49.966;7.106;2023-02-15T05:45:16;21.50;;;15.43;;
3767;SDS011;1899;49.966;7.106;2023-02-15T05:47:41;19.93;;;14.40;;
3767;SDS011;1899;49.966;7.106;2023-02-15T05:50:07;23.17;;;16.70;;
3767;SDS011;1899;49.966;7.106;2023-02-15T05:52:32;19.83;;;14.07;;
3767;SDS011;1899;49.966;7.106;2023-02-15T05:54:58;22.55;;;14.75;;
3767;SDS011;1899;49.966;7.106;2023-02-15T05:57:25;24.02;;;15.40;;
3767;SDS011;1899;49.966;7.106;2023-02-15T05:59:50;25.77;;;15.97;;
3767;SDS011;1899;49.966;7.106;2023-02-15T06:02:15;19.97;;;13.90;;
3767;SDS011;1899;49.966;7.106;2023-02-15T06:04:40;22.70;;;14.60;;
3767;SDS011;1899;49.966;7.106;2023-02-15T06:07:06;22.23;;;15.07;;
3767;SDS011;1899;49.966;7.106;2023-02-15T06:09:31;22.63;;;14.43;;
3767;SDS011;1899;49.966;7.106;2023-02-15T06:11:56;22.70;;;14.68;;
3767;SDS011;1899;49.966;7.106;2023-02-15T06:14:21;19.63;;;13.80;;
3767;SDS011;1899;49.966;7.106;2023-02-15T06:16:47;21.47;;;14.37;;
3767;SDS011;1899;49.966;7.106;2023-02-15T06:19:12;28.87;;;15.37;;
3767;SDS011;1899;49.966;7.106;2023-02-15T06:21:37;29.57;;;14.87;;
3767;SDS011;1899;49.966;7.106;2023-02-15T06:24:02;19.20;;;12.57;;
3767;SDS011;1899;49.966;7.106;2023-02-15T06:26:28;19.93;;;13.60;;
3767;SDS011;1899;49.966;7.106;2023-02-15T06:28:53;20.30;;;14.20;;
3767;SDS011;1899;49.966;7.106;2023-02-15T06:31:18;19.77;;;13.67;;
3767;SDS011;1899;49.966;7.106;2023-02-15T06:33:43;21.47;;;14.33;;
3767;SDS011;1899;49.966;7.106;2023-02-15T06:36:09;18.77;;;12.70;;
3767;SDS011;1899;49.966;7.106;2023-02-15T06:38:34;32.13;;;14.63;;
3767;SDS011;1899;49.966;7.106;2023-02-15T06:40:59;19.95;;;14.13;;
3767;SDS011;1899;49.966;7.106;2023-02-15T06:43:24;39.83;;;18.00;;
3767;SDS011;1899;49.966;7.106;2023-02-15T06:45:50;23.67;;;14.53;;
3767;SDS011;1899;49.966;7.106;2023-02-15T06:48:15;20.30;;;13.67;;
3767;SDS011;1899;49.966;7.106;2023-02-15T06:50:40;31.57;;;15.60;;
3767;SDS011;1899;49.966;7.106;2023-02-15T06:53:05;25.00;;;16.33;;
3767;SDS011;1899;49.966;7.106;2023-02-15T06:55:31;55.93;;;19.97;;
3767;SDS011;1899;49.966;7.106;2023-02-15T06:57:56;23.40;;;16.03;;
3767;SDS011;1899;49.966;7.106;2023-02-15T07:00:21;25.30;;;16.47;;
3767;SDS011;1899;49.966;7.106;2023-02-15T07:02:48;19.48;;;13.40;;
3767;SDS011;1899;49.966;7.106;2023-02-15T07:05:13;30.02;;;13.77;;
3767;SDS011;1899;49.966;7.106;2023-02-15T07:07:39;18.73;;;13.10;;
3767;SDS011;1899;49.966;7.106;2023-02-15T07:10:04;16.75;;;12.52;;
3767;SDS011;1899;49.966;7.106;2023-02-15T07:12:29;20.95;;;13.90;;
3767;SDS011;1899;49.966;7.106;2023-02-15T07:15:10;17.65;;;13.02;;
3767;SDS011;1899;49.966;7.106;2023-02-15T07:17:36;16.63;;;12.27;;
3767;SDS011;1899;49.966;7.106;2023-02-15T07:20:06;15.30;;;11.00;;
3767;SDS011;1899;49.966;7.106;2023-02-15T07:22:32;13.60;;;10.30;;
3767;SDS011;1899;49.966;7.106;2023-02-15T07:24:59;13.25;;;10.75;;
3767;SDS011;1899;49.966;7.106;2023-02-15T07:27:24;16.87;;;12.17;;
3767;SDS011;1899;49.966;7.106;2023-02-15T07:29:49;18.77;;;12.33;;
3767;SDS011;1899;49.966;7.106;2023-02-15T07:32:14;19.10;;;12.80;;
3767;SDS011;1899;49.966;7.106;2023-02-15T07:34:40;17.60;;;12.73;;
3767;SDS011;1899;49.966;7.106;2023-02-15T07:37:05;16.67;;;11.27;;
3767;SDS011;1899;49.966;7.106;2023-02-15T07:39:30;18.00;;;12.33;;
3767;SDS011;1899;49.966;7.106;2023-02-15T07:41:56;17.90;;;12.30;;
3767;SDS011;1899;49.966;7.106;2023-02-15T07:44:21;15.80;;;11.50;;
3767;SDS011;1899;49.966;7.106;2023-02-15T07:46:46;16.90;;;11.53;;
3767;SDS011;1899;49.966;7.106;2023-02-15T07:49:11;17.10;;;11.37;;
3767;SDS011;1899;49.966;7.106;2023-02-15T07:51:37;25.13;;;12.90;;
3767;SDS011;1899;49.966;7.106;2023-02-15T07:54:02;23.47;;;13.37;;
3767;SDS011;1899;49.966;7.106;2023-02-15T07:56:27;21.17;;;14.20;;
3767;SDS011;1899;49.966;7.106;2023-02-15T07:58:52;19.20;;;14.07;;
3767;SDS011;1899;49.966;7.106;2023-02-15T08:01:18;18.43;;;13.13;;
3767;SDS011;1899;49.966;7.106;2023-02-15T08:03:44;25.23;;;13.50;;
3767;SDS011;1899;49.966;7.106;2023-02-15T08:06:09;18.00;;;13.23;;
3767;SDS011;1899;49.966;7.106;2023-02-15T08:08:36;17.88;;;12.27;;
3767;SDS011;1899;49.966;7.106;2023-02-15T08:13:50;16.83;;;11.95;;
3767;SDS011;1899;49.966;7.106;2023-02-15T08:16:41;16.23;;;11.60;;
3767;SDS011;1899;49.966;7.106;2023-02-15T08:19:14;23.15;;;12.82;;
3767;SDS011;1899;49.966;7.106;2023-02-15T08:21:41;25.95;;;12.40;;
3767;SDS011;1899;49.966;7.106;2023-02-15T08:24:07;34.90;;;13.70;;
3767;SDS011;1899;49.966;7.106;2023-02-15T08:26:32;18.45;;;12.90;;
3767;SDS011;1899;49.966;7.106;2023-02-15T08:28:58;14.47;;;11.10;;
3767;SDS011;1899;49.966;7.106;2023-02-15T08:31:24;15.77;;;11.90;;
3767;SDS011;1899;49.966;7.106;2023-02-15T08:33:50;13.18;;;10.30;;
3767;SDS011;1899;49.966;7.106;2023-02-15T08:36:17;14.10;;;11.20;;
3767;SDS011;1899;49.966;7.106;2023-02-15T08:38:42;15.05;;;11.30;;
3767;SDS011;1899;49.966;7.106;2023-02-15T08:41:18;15.02;;;11.43;;
3767;SDS011;1899;49.966;7.106;2023-02-15T08:43:44;13.48;;;10.90;;
3767;SDS011;1899;49.966;7.106;2023-02-15T08:46:10;13.20;;;10.00;;
3767;SDS011;1899;49.966;7.106;2023-02-15T08:48:35;11.55;;;9.50;;
3767;SDS011;1899;49.966;7.106;2023-02-15T08:51:05;14.30;;;11.00;;
3767;SDS011;1899;49.966;7.106;2023-02-15T08:53:30;14.88;;;11.68;;
3767;SDS011;1899;49.966;7.106;2023-02-15T08:55:56;13.97;;;10.70;;
3767;SDS011;1899;49.966;7.106;2023-02-15T08:58:22;15.13;;;11.55;;
3767;SDS011;1899;49.966;7.106;2023-02-15T09:00:47;15.10;;;11.90;;
3767;SDS011;1899;49.966;7.106;2023-02-15T09:03:13;15.03;;;10.87;;
3767;SDS011;1899;49.966;7.106;2023-02-15T09:05:38;16.20;;;12.07;;
3767;SDS011;1899;49.966;7.106;2023-02-15T09:08:03;16.13;;;12.17;;
3767;SDS011;1899;49.966;7.106;2023-02-15T09:10:28;16.20;;;11.03;;
3767;SDS011;1899;49.966;7.106;2023-02-15T09:12:54;17.90;;;12.40;;
3767;SDS011;1899;49.966;7.106;2023-02-15T09:15:19;23.00;;;12.30;;
3767;SDS011;1899;49.966;7.106;2023-02-15T09:17:44;16.52;;;11.75;;
3767;SDS011;1899;49.966;7.106;2023-02-15T09:20:09;16.70;;;12.77;;
3767;SDS011;1899;49.966;7.106;2023-02-15T09:22:35;15.43;;;12.13;;
3767;SDS011;1899;49.966;7.106;2023-02-15T09:25:00;16.57;;;11.47;;
3767;SDS011;1899;49.966;7.106;2023-02-15T09:27:25;13.80;;;10.97;;
3767;SDS011;1899;49.966;7.106;2023-02-15T09:29:50;14.10;;;11.20;;
3767;SDS011;1899;49.966;7.106;2023-02-15T09:32:16;14.83;;;11.17;;
3767;SDS011;1899;49.966;7.106;2023-02-15T09:34:42;19.02;;;13.50;;
3767;SDS011;1899;49.966;7.106;2023-02-15T09:37:07;18.00;;;13.50;;
3767;SDS011;1899;49.966;7.106;2023-02-15T09:39:33;20.60;;;14.50;;
3767;SDS011;1899;49.966;7.106;2023-02-15T09:55:05;14.90;;;12.02;;
3767;SDS011;1899;49.966;7.106;2023-02-15T09:57:37;16.58;;;13.00;;
3767;SDS011;1899;49.966;7.106;2023-02-15T10:00:21;16.42;;;12.57;;
3767;SDS011;1899;49.966;7.106;2023-02-15T10:03:09;16.27;;;13.20;;
3767;SDS011;1899;49.966;7.106;2023-02-15T10:13:34;17.15;;;13.40;;
3767;SDS011;1899;49.966;7.106;2023-02-15T10:27:13;22.15;;;17.05;;
3767;SDS011;1899;49.966;7.106;2023-02-15T10:29:45;20.30;;;16.13;;
3767;SDS011;1899;49.966;7.106;2023-02-15T10:34:39;19.10;;;15.27;;
3767;SDS011;1899;49.966;7.106;2023-02-15T10:37:20;22.35;;;17.00;;
3767;SDS011;1899;49.966;7.106;2023-02-15T10:43:19;23.00;;;17.97;;
3767;SDS011;1899;49.966;7.106;2023-02-15T10:50:45;24.15;;;18.40;;
3767;SDS011;1899;49.966;7.106;2023-02-15T11:06:22;17.52;;;14.32;;
3767;SDS011;1899;49.966;7.106;2023-02-15T11:08:52;20.50;;;14.80;;
3767;SDS011;1899;49.966;7.106;2023-02-15T11:11:23;18.80;;;14.30;;
3767;SDS011;1899;49.966;7.106;2023-02-15T11:13:50;16.17;;;13.82;;
3767;SDS011;1899;49.966;7.106;2023-02-15T11:16:20;16.67;;;13.57;;
3767;SDS011;1899;49.966;7.106;2023-02-15T11:18:59;18.90;;;13.40;;
3767;SDS011;1899;49.966;7.106;2023-02-15T11:23:57;16.43;;;13.33;;
3767;SDS011;1899;49.966;7.106;2023-02-15T11:28:51;17.50;;;13.60;;
3767;SDS011;1899;49.966;7.106;2023-02-15T11:31:21;17.15;;;13.40;;
3767;SDS011;1899;49.966;7.106;2023-02-15T11:33:48;17.55;;;13.70;;
3767;SDS011;1899;49.966;7.106;2023-02-15T11:36:20;19.08;;;13.68;;
3767;SDS011;1899;49.966;7.106;2023-02-15T11:38:48;17.25;;;13.88;;
3767;SDS011;1899;49.966;7.106;2023-02-15T11:41:19;17.25;;;14.00;;
3767;SDS011;1899;49.966;7.106;2023-02-15T11:43:49;17.67;;;13.80;;
3767;SDS011;1899;49.966;7.106;2023-02-15T11:46:16;17.83;;;14.05;;
3767;SDS011;1899;49.966;7.106;2023-02-15T11:48:43;19.70;;;14.88;;
3767;SDS011;1899;49.966;7.106;2023-02-15T11:51:09;21.23;;;14.30;;
3767;SDS011;1899;49.966;7.106;2023-02-15T11:53:37;18.35;;;14.60;;
3767;SDS011;1899;49.966;7.106;2023-02-15T11:56:03;20.25;;;14.90;;
3767;SDS011;1899;49.966;7.106;2023-02-15T12:01:32;17.70;;;13.20;;
3767;SDS011;1899;49.966;7.106;2023-02-15T12:04:06;17.02;;;13.45;;
3767;SDS011;1899;49.966;7.106;2023-02-15T12:07:18;17.10;;;13.20;;
3767;SDS011;1899;49.966;7.106;2023-02-15T12:11:54;17.77;;;14.18;;
3767;SDS011;1899;49.966;7.106;2023-02-15T12:14:46;16.67;;;13.10;;
3767;SDS011;1899;49.966;7.106;2023-02-15T12:17:12;18.70;;;13.60;;
3767;SDS011;1899;49.966;7.106;2023-02-15T12:19:39;17.57;;;13.77;;
3767;SDS011;1899;49.966;7.106;2023-02-15T12:25:04;18.13;;;14.50;;
3767;SDS011;1899;49.966;7.106;2023-02-15T12:27:36;19.30;;;13.85;;
3767;SDS011;1899;49.966;7.106;2023-02-15T12:30:16;18.83;;;13.80;;
3767;SDS011;1899;49.966;7.106;2023-02-15T12:35:35;18.60;;;14.25;;
3767;SDS011;1899;49.966;7.106;2023-02-15T12:38:03;19.63;;;13.88;;
3767;SDS011;1899;49.966;7.106;2023-02-15T12:40:29;34.72;;;15.30;;
3767;SDS011;1899;49.966;7.106;2023-02-15T12:42:54;17.90;;;13.18;;
3767;SDS011;1899;49.966;7.106;2023-02-15T12:45:25;32.35;;;16.00;;
3767;SDS011;1899;49.966;7.106;2023-02-15T12:50:34;20.38;;;13.43;;
3767;SDS011;1899;49.966;7.106;2023-02-15T12:55:51;20.35;;;13.80;;
3767;SDS011;1899;49.966;7.106;2023-02-15T12:58:18;15.30;;;13.30;;
3767;SDS011;1899;49.966;7.106;2023-02-15T13:00:43;14.30;;;12.80;;
3767;SDS011;1899;49.966;7.106;2023-02-15T13:03:15;14.87;;;12.80;;
3767;SDS011;1899;49.966;7.106;2023-02-15T13:05:42;14.60;;;13.00;;
3767;SDS011;1899;49.966;7.106;2023-02-15T13:10:42;16.00;;;13.67;;
3767;SDS011;1899;49.966;7.106;2023-02-15T13:13:11;15.23;;;13.50;;
3767;SDS011;1899;49.966;7.106;2023-02-15T13:15:43;14.55;;;13.00;;
3767;SDS011;1899;49.966;7.106;2023-02-15T13:18:14;13.43;;;12.00;;
3767;SDS011;1899;49.966;7.106;2023-02-15T13:20:41;15.07;;;12.70;;
3767;SDS011;1899;49.966;7.106;2023-02-15T13:23:19;16.35;;;13.55;;
3767;SDS011;1899;49.966;7.106;2023-02-15T13:25:46;18.52;;;14.00;;
3767;SDS011;1899;49.966;7.106;2023-02-15T13:28:15;15.73;;;14.02;;
3767;SDS011;1899;49.966;7.106;2023-02-15T13:30:45;16.38;;;13.40;;
3767;SDS011;1899;49.966;7.106;2023-02-15T13:33:33;14.35;;;12.95;;
3767;SDS011;1899;49.966;7.106;2023-02-15T13:36:12;15.73;;;13.15;;
3767;SDS011;1899;49.966;7.106;2023-02-15T13:41:25;20.38;;;13.48;;
3767;SDS011;1899;49.966;7.106;2023-02-15T13:43:56;14.13;;;12.40;;
3767;SDS011;1899;49.966;7.106;2023-02-15T13:54:19;14.57;;;13.17;;
3767;SDS011;1899;49.966;7.106;2023-02-15T13:57:05;16.02;;;13.75;;
3767;SDS011;1899;49.966;7.106;2023-02-15T13:59:52;14.18;;;12.77;;
3767;SDS011;1899;49.966;7.106;2023-02-15T14:05:05;14.90;;;12.93;;
3767;SDS011;1899;49.966;7.106;2023-02-15T14:07:41;28.77;;;14.70;;
3767;SDS011;1899;49.966;7.106;2023-02-15T14:22:57;16.57;;;13.37;;
3767;SDS011;1899;49.966;7.106;2023-02-15T14:25:29;14.80;;;13.30;;
3767;SDS011;1899;49.966;7.106;2023-02-15T14:28:00;16.08;;;14.38;;
3767;SDS011;1899;49.966;7.106;2023-02-15T14:30:46;16.17;;;13.20;;
3767;SDS011;1899;49.966;7.106;2023-02-15T14:35:57;18.42;;;13.00;;
3767;SDS011;1899;49.966;7.106;2023-02-15T14:41:21;16.10;;;13.50;;
3767;SDS011;1899;49.966;7.106;2023-02-15T14:56:45;17.02;;;14.80;;
3767;SDS011;1899;49.966;7.106;2023-02-15T15:01:36;16.80;;;13.97;;
3767;SDS011;1899;49.966;7.106;2023-02-15T15:04:12;20.00;;;14.87;;
3767;SDS011;1899;49.966;7.106;2023-02-15T15:06:39;18.65;;;14.43;;
3767;SDS011;1899;49.966;7.106;2023-02-15T15:11:49;15.57;;;13.40;;
3767;SDS011;1899;49.966;7.106;2023-02-15T15:17:02;19.80;;;14.13;;
3767;SDS011;1899;49.966;7.106;2023-02-15T15:19:56;12.10;;;10.30;;
3767;SDS011;1899;49.966;7.106;2023-02-15T15:22:25;12.60;;;11.10;;
3767;SDS011;1899;49.966;7.106;2023-02-15T15:24:57;14.75;;;11.77;;
3767;SDS011;1899;49.966;7.106;2023-02-15T15:48:30;15.48;;;11.77;;
3767;SDS011;1899;49.966;7.106;2023-02-15T15:50:57;14.93;;;12.18;;
3767;SDS011;1899;49.966;7.106;2023-02-15T15:53:25;13.90;;;12.05;;
3767;SDS011;1899;49.966;7.106;2023-02-15T15:55:52;16.58;;;12.43;;
3767;SDS011;1899;49.966;7.106;2023-02-15T15:58:20;16.98;;;12.80;;
3767;SDS011;1899;49.966;7.106;2023-02-15T16:03:21;15.93;;;12.37;;
3767;SDS011;1899;49.966;7.106;2023-02-15T16:05:47;16.27;;;12.60;;
3767;SDS011;1899;49.966;7.106;2023-02-15T16:08:25;15.23;;;12.88;;
3767;SDS011;1899;49.966;7.106;2023-02-15T16:10:50;15.60;;;12.63;;
3767;SDS011;1899;49.966;7.106;2023-02-15T16:13:16;16.73;;;13.20;;
3767;SDS011;1899;49.966;7.106;2023-02-15T16:15:44;17.20;;;12.97;;
3767;SDS011;1899;49.966;7.106;2023-02-15T16:18:16;17.92;;;14.48;;
3767;SDS011;1899;49.966;7.106;2023-02-15T16:20:48;19.25;;;14.60;;
3767;SDS011;1899;49.966;7.106;2023-02-15T16:25:47;16.88;;;14.07;;
3767;SDS011;1899;49.966;7.106;2023-02-15T16:28:15;18.80;;;14.43;;
3767;SDS011;1899;49.966;7.106;2023-02-15T16:30:43;20.13;;;14.98;;
3767;SDS011;1899;49.966;7.106;2023-02-15T16:33:14;20.48;;;15.18;;
3767;SDS011;1899;49.966;7.106;2023-02-15T16:35:41;21.77;;;15.35;;
3767;SDS011;1899;49.966;7.106;2023-02-15T16:38:09;20.50;;;15.40;;
3767;SDS011;1899;49.966;7.106;2023-02-15T16:40:41;23.42;;;15.82;;
3767;SDS011;1899;49.966;7.106;2023-02-15T16:43:11;19.60;;;14.88;;
3767;SDS011;1899;49.966;7.106;2023-02-15T16:45:38;21.35;;;16.38;;
3767;SDS011;1899;49.966;7.106;2023-02-15T16:48:05;20.37;;;14.83;;
3767;SDS011;1899;49.966;7.106;2023-02-15T16:50:33;17.33;;;13.90;;
3767;SDS011;1899;49.966;7.106;2023-02-15T16:52:59;21.35;;;14.32;;
3767;SDS011;1899;49.966;7.106;2023-02-15T16:55:25;20.45;;;14.90;;
3767;SDS011;1899;49.966;7.106;2023-02-15T16:57:54;20.13;;;13.88;;
3767;SDS011;1899;49.966;7.106;2023-02-15T17:00:21;20.02;;;15.00;;
3767;SDS011;1899;49.966;7.106;2023-02-15T17:03:04;19.48;;;14.10;;
3767;SDS011;1899;49.966;7.106;2023-02-15T17:05:31;19.60;;;15.90;;
3767;SDS011;1899;49.966;7.106;2023-02-15T17:13:14;19.98;;;14.95;;
3767;SDS011;1899;49.966;7.106;2023-02-15T17:15:40;22.98;;;16.45;;
3767;SDS011;1899;49.966;7.106;2023-02-15T17:18:16;22.85;;;16.35;;
3767;SDS011;1899;49.966;7.106;2023-02-15T17:20:43;21.45;;;16.35;;
3767;SDS011;1899;49.966;7.106;2023-02-15T17:25:52;23.70;;;16.70;;
3767;SDS011;1899;49.966;7.106;2023-02-15T17:28:19;21.40;;;16.35;;
3767;SDS011;1899;49.966;7.106;2023-02-15T17:30:45;23.88;;;16.60;;
3767;SDS011;1899;49.966;7.106;2023-02-15T17:33:19;22.60;;;16.40;;
3767;SDS011;1899;49.966;7.106;2023-02-15T17:35:45;23.13;;;17.05;;
3767;SDS011;1899;49.966;7.106;2023-02-15T17:38:26;24.33;;;17.63;;
3767;SDS011;1899;49.966;7.106;2023-02-15T17:40:51;21.73;;;17.17;;
3767;SDS011;1899;49.966;7.106;2023-02-15T17:43:17;23.07;;;17.40;;
3767;SDS011;1899;49.966;7.106;2023-02-15T17:45:43;24.30;;;18.07;;
3767;SDS011;1899;49.966;7.106;2023-02-15T17:48:09;23.42;;;16.88;;
3767;SDS011;1899;49.966;7.106;2023-02-15T17:50:43;23.05;;;17.55;;
3767;SDS011;1899;49.966;7.106;2023-02-15T17:53:08;20.70;;;15.30;;
3767;SDS011;1899;49.966;7.106;2023-02-15T17:55:33;24.93;;;16.77;;
3767;SDS011;1899;49.966;7.106;2023-02-15T17:58:15;23.43;;;17.30;;
3767;SDS011;1899;49.966;7.106;2023-02-15T18:00:57;22.83;;;16.52;;
3767;SDS011;1899;49.966;7.106;2023-02-15T18:03:45;23.15;;;17.27;;
3767;SDS011;1899;49.966;7.106;2023-02-15T18:06:30;25.52;;;17.73;;
3767;SDS011;1899;49.966;7.106;2023-02-15T18:09:15;22.13;;;17.20;;
3767;SDS011;1899;49.966;7.106;2023-02-15T18:11:59;24.80;;;16.90;;
3767;SDS011;1899;49.966;7.106;2023-02-15T18:14:24;26.00;;;16.75;;
3767;SDS011;1899;49.966;7.106;2023-02-15T18:16:50;22.27;;;16.58;;
3767;SDS011;1899;49.966;7.106;2023-02-15T18:21:40;25.97;;;18.60;;
3767;SDS011;1899;49.966;7.106;2023-02-15T18:24:09;25.07;;;18.70;;
3767;SDS011;1899;49.966;7.106;2023-02-15T18:26:38;25.00;;;18.08;;
3767;SDS011;1899;49.966;7.106;2023-02-15T18:29:03;26.67;;;19.07;;
3767;SDS011;1899;49.966;7.106;2023-02-15T18:31:28;23.90;;;18.70;;
3767;SDS011;1899;49.966;7.106;2023-02-15T18:33:54;27.27;;;19.10;;
3767;SDS011;1899;49.966;7.106;2023-02-15T18:36:24;21.92;;;17.50;;
3767;SDS011;1899;49.966;7.106;2023-02-15T18:38:51;24.65;;;17.60;;
3767;SDS011;1899;49.966;7.106;2023-02-15T18:41:18;21.88;;;16.83;;
3767;SDS011;1899;49.966;7.106;2023-02-15T18:43:44;24.83;;;18.02;;
3767;SDS011;1899;49.966;7.106;2023-02-15T18:46:10;22.90;;;17.80;;
3767;SDS011;1899;49.966;7.106;2023-02-15T18:48:35;21.70;;;17.10;;
3767;SDS011;1899;49.966;7.106;2023-02-15T18:51:00;22.80;;;17.27;;
3767;SDS011;1899;49.966;7.106;2023-02-15T18:53:26;22.20;;;16.97;;
3767;SDS011;1899;49.966;7.106;2023-02-15T18:55:51;24.60;;;17.50;;
3767;SDS011;1899;49.966;7.106;2023-02-15T18:58:18;24.10;;;17.53;;
3767;SDS011;1899;49.966;7.106;2023-02-15T19:00:43;23.83;;;17.52;;
3767;SDS011;1899;49.966;7.106;2023-02-15T19:03:10;23.15;;;17.23;;
3767;SDS011;1899;49.966;7.106;2023-02-15T19:05:36;23.63;;;17.20;;
3767;SDS011;1899;49.966;7.106;2023-02-15T19:08:01;24.60;;;18.20;;
3767;SDS011;1899;49.966;7.106;2023-02-15T19:10:27;25.00;;;18.70;;
3767;SDS011;1899;49.966;7.106;2023-02-15T19:12:54;25.55;;;18.70;;
3767;SDS011;1899;49.966;7.106;2023-02-15T19:15:21;23.77;;;17.55;;
3767;SDS011;1899;49.966;7.106;2023-02-15T19:17:46;26.33;;;18.25;;
3767;SDS011;1899;49.966;7.106;2023-02-15T19:20:18;24.73;;;18.07;;
3767;SDS011;1899;49.966;7.106;2023-02-15T19:22:45;25.58;;;18.33;;
3767;SDS011;1899;49.966;7.106;2023-02-15T19:25:18;22.65;;;17.00;;
3767;SDS011;1899;49.966;7.106;2023-02-15T19:27:44;27.98;;;19.20;;
3767;SDS011;1899;49.966;7.106;2023-02-15T19:32:40;22.02;;;17.52;;
3767;SDS011;1899;49.966;7.106;2023-02-15T19:35:05;26.67;;;19.40;;
3767;SDS011;1899;49.966;7.106;2023-02-15T19:37:34;26.13;;;19.60;;
3767;SDS011;1899;49.966;7.106;2023-02-15T19:40:01;25.65;;;19.83;;
3767;SDS011;1899;49.966;7.106;2023-02-15T19:42:27;26.92;;;19.95;;
3767;SDS011;1899;49.966;7.106;2023-02-15T19:44:52;26.55;;;19.67;;
3767;SDS011;1899;49.966;7.106;2023-02-15T19:47:18;27.00;;;21.30;;
3767;SDS011;1899;49.966;7.106;2023-02-15T19:49:44;26.75;;;20.48;;
3767;SDS011;1899;49.966;7.106;2023-02-15T19:52:19;25.57;;;18.70;;
3767;SDS011;1899;49.966;7.106;2023-02-15T19:54:47;28.52;;;20.23;;
3767;SDS011;1899;49.966;7.106;2023-02-15T19:57:12;26.63;;;19.50;;
3767;SDS011;1899;49.966;7.106;2023-02-15T19:59:38;25.40;;;19.50;;
3767;SDS011;1899;49.966;7.106;2023-02-15T20:02:04;27.05;;;18.55;;
3767;SDS011;1899;49.966;7.106;2023-02-15T20:04:29;26.35;;;19.55;;
3767;SDS011;1899;49.966;7.106;2023-02-15T20:06:56;27.30;;;19.47;;
3767;SDS011;1899;49.966;7.106;2023-02-15T20:09:22;28.45;;;20.10;;
3767;SDS011;1899;49.966;7.106;2023-02-15T20:11:52;27.75;;;20.25;;
3767;SDS011;1899;49.966;7.106;2023-02-15T20:14:18;28.40;;;20.83;;
3767;SDS011;1899;49.966;7.106;2023-02-15T20:16:43;24.10;;;17.70;;
3767;SDS011;1899;49.966;7.106;2023-02-15T20:19:08;25.00;;;18.52;;
3767;SDS011;1899;49.966;7.106;2023-02-15T20:21:34;28.75;;;20.40;;
3767;SDS011;1899;49.966;7.106;2023-02-15T20:24:00;25.63;;;19.85;;
3767;SDS011;1899;49.966;7.106;2023-02-15T20:26:25;26.53;;;19.67;;
3767;SDS011;1899;49.966;7.106;2023-02-15T20:28:53;28.30;;;19.33;;
3767;SDS011;1899;49.966;7.106;2023-02-15T20:31:19;27.03;;;19.40;;
3767;SDS011;1899;49.966;7.106;2023-02-15T20:33:45;27.77;;;19.80;;
3767;SDS011;1899;49.966;7.106;2023-02-15T20:36:14;28.57;;;21.33;;
3767;SDS011;1899;49.966;7.106;2023-02-15T20:38:40;26.92;;;20.65;;
3767;SDS011;1899;49.966;7.106;2023-02-15T20:41:07;26.37;;;19.87;;
3767;SDS011;1899;49.966;7.106;2023-02-15T20:43:52;29.75;;;21.23;;
3767;SDS011;1899;49.966;7.106;2023-02-15T20:46:17;25.27;;;19.10;;
3767;SDS011;1899;49.966;7.106;2023-02-15T20:48:42;26.83;;;20.07;;
3767;SDS011;1899;49.966;7.106;2023-02-15T20:51:17;27.83;;;19.87;;
3767;SDS011;1899;49.966;7.106;2023-02-15T20:53:43;26.20;;;19.70;;
3767;SDS011;1899;49.966;7.106;2023-02-15T20:56:19;27.40;;;20.17;;
3767;SDS011;1899;49.966;7.106;2023-02-15T20:58:45;29.20;;;19.75;;
